sensor_id;sensor_type;location;lat;lon;timestamp;temperature;humidity
27667;DHT22;15074;50.940;5.282;2023-03-20T00:03:49;8.40;99.90
27667;DHT22;15074;50.940;5.282;2023-03-20T00:06:20;8.30;99.90
27667;DHT22;15074;50.940;5.282;2023-03-20T00:08:47;8.00;99.90
27667;DHT22;15074;50.940;5.282;2023-03-20T00:13:52;7.70;99.90
27667;DHT22;15074;50.940;5.282;2023-03-20T00:16:19;7.50;99.90
27667;DHT22;15074;50.940;5.282;2023-03-20T00:22:10;7.10;99.90
27667;DHT22;15074;50.940;5.282;2023-03-20T00:24:39;7.00;99.90
27667;DHT22;15074;50.940;5.282;2023-03-20T00:27:04;6.90;99.90
27667;DHT22;15074;50.940;5.282;2023-03-20T00:29:31;6.80;99.90
27667;DHT22;15074;50.940;5.282;2023-03-20T00:35:29;6.60;99.90
27667;DHT22;15074;50.940;5.282;2023-03-20T00:44:04;6.40;99.90
27667;DHT22;15074;50.940;5.282;2023-03-20T00:46:37;6.40;99.90
27667;DHT22;15074;50.940;5.282;2023-03-20T00:49:03;6.40;99.90
27667;DHT22;15074;50.940;5.282;2023-03-20T00:51:29;6.30;99.90
27667;DHT22;15074;50.940;5.282;2023-03-20T00:53:55;6.30;99.90
27667;DHT22;15074;50.940;5.282;2023-03-20T00:56:50;6.20;99.90
27667;DHT22;15074;50.940;5.282;2023-03-20T00:59:21;6.30;99.90
27667;DHT22;15074;50.940;5.282;2023-03-20T01:01:47;6.20;99.90
27667;DHT22;15074;50.940;5.282;2023-03-20T01:07:41;6.20;99.90
27667;DHT22;15074;50.940;5.282;2023-03-20T01:10:09;6.20;99.90
27667;DHT22;15074;50.940;5.282;2023-03-20T01:12:37;6.20;99.90
27667;DHT22;15074;50.940;5.282;2023-03-20T01:15:06;6.30;99.90
27667;DHT22;15074;50.940;5.282;2023-03-20T01:17:40;6.30;99.90
27667;DHT22;15074;50.940;5.282;2023-03-20T01:20:13;6.50;99.90
27667;DHT22;15074;50.940;5.282;2023-03-20T01:26:01;6.40;99.90
27667;DHT22;15074;50.940;5.282;2023-03-20T01:28:29;6.30;99.90
27667;DHT22;15074;50.940;5.282;2023-03-20T01:30:55;6.20;99.90
27667;DHT22;15074;50.940;5.282;2023-03-20T01:33:23;6.00;99.90
27667;DHT22;15074;50.940;5.282;2023-03-20T01:36:11;5.90;99.90
27667;DHT22;15074;50.940;5.282;2023-03-20T01:38:38;6.00;99.90
27667;DHT22;15074;50.940;5.282;2023-03-20T01:41:16;6.00;99.90
27667;DHT22;15074;50.940;5.282;2023-03-20T01:43:44;6.00;99.90
27667;DHT22;15074;50.940;5.282;2023-03-20T01:46:25;6.00;99.90
27667;DHT22;15074;50.940;5.282;2023-03-20T01:51:37;6.00;99.90
27667;DHT22;15074;50.940;5.282;2023-03-20T01:59:28;6.10;99.90
27667;DHT22;15074;50.940;5.282;2023-03-20T02:02:15;6.00;99.90
27667;DHT22;15074;50.940;5.282;2023-03-20T02:04:46;5.90;99.90
27667;DHT22;15074;50.940;5.282;2023-03-20T02:07:13;5.90;99.90
27667;DHT22;15074;50.940;5.282;2023-03-20T02:09:46;5.80;99.90
27667;DHT22;15074;50.940;5.282;2023-03-20T02:12:12;5.70;99.90
27667;DHT22;15074;50.940;5.282;2023-03-20T02:14:38;5.70;99.90
27667;DHT22;15074;50.940;5.282;2023-03-20T02:17:06;5.80;99.90
27667;DHT22;15074;50.940;5.282;2023-03-20T02:25:26;5.80;99.90
27667;DHT22;15074;50.940;5.282;2023-03-20T02:34:07;5.60;99.90
27667;DHT22;15074;50.940;5.282;2023-03-20T02:36:45;5.60;99.90
27667;DHT22;15074;50.940;5.282;2023-03-20T02:39:24;5.50;99.90
27667;DHT22;15074;50.940;5.282;2023-03-20T02:45:06;5.70;99.90
27667;DHT22;15074;50.940;5.282;2023-03-20T02:51:00;5.90;99.90
27667;DHT22;15074;50.940;5.282;2023-03-20T02:53:42;5.80;99.90
27667;DHT22;15074;50.940;5.282;2023-03-20T03:01:26;5.80;99.90
27667;DHT22;15074;50.940;5.282;2023-03-20T03:04:11;5.90;99.90
27667;DHT22;15074;50.940;5.282;2023-03-20T03:06:42;6.00;99.90
27667;DHT22;15074;50.940;5.282;2023-03-20T03:11:52;6.00;99.90
27667;DHT22;15074;50.940;5.282;2023-03-20T03:14:42;6.00;99.90
27667;DHT22;15074;50.940;5.282;2023-03-20T03:17:18;6.00;99.90
27667;DHT22;15074;50.940;5.282;2023-03-20T03:19:48;6.10;99.90
27667;DHT22;15074;50.940;5.282;2023-03-20T03:22:16;6.10;99.90
27667;DHT22;15074;50.940;5.282;2023-03-20T03:24:44;6.00;99.90
27667;DHT22;15074;50.940;5.282;2023-03-20T03:27:23;6.00;99.90
27667;DHT22;15074;50.940;5.282;2023-03-20T03:29:59;6.10;99.90
27667;DHT22;15074;50.940;5.282;2023-03-20T03:34:59;6.10;99.90
27667;DHT22;15074;50.940;5.282;2023-03-20T03:46:18;6.30;99.90
27667;DHT22;15074;50.940;5.282;2023-03-20T03:49:03;6.40;99.90
27667;DHT22;15074;50.940;5.282;2023-03-20T03:51:30;6.50;99.90
27667;DHT22;15074;50.940;5.282;2023-03-20T03:54:29;6.40;99.90
27667;DHT22;15074;50.940;5.282;2023-03-20T03:56:53;6.40;99.90
27667;DHT22;15074;50.940;5.282;2023-03-20T03:59:29;6.50;99.90
27667;DHT22;15074;50.940;5.282;2023-03-20T04:02:15;6.50;99.90
27667;DHT22;15074;50.940;5.282;2023-03-20T04:04:45;6.50;99.90
27667;DHT22;15074;50.940;5.282;2023-03-20T04:07:13;6.40;99.90
27667;DHT22;15074;50.940;5.282;2023-03-20T04:09:39;6.40;99.90
27667;DHT22;15074;50.940;5.282;2023-03-20T04:12:07;6.40;99.90
27667;DHT22;15074;50.940;5.282;2023-03-20T04:14:42;6.50;99.90
27667;DHT22;15074;50.940;5.282;2023-03-20T04:17:08;6.60;99.90
27667;DHT22;15074;50.940;5.282;2023-03-20T04:19:36;6.60;99.90
27667;DHT22;15074;50.940;5.282;2023-03-20T04:22:01;6.50;99.90
27667;DHT22;15074;50.940;5.282;2023-03-20T04:24:27;6.50;99.90
27667;DHT22;15074;50.940;5.282;2023-03-20T04:26:53;6.50;99.90
27667;DHT22;15074;50.940;5.282;2023-03-20T04:29:19;6.50;99.90
27667;DHT22;15074;50.940;5.282;2023-03-20T04:31:44;6.50;99.90
27667;DHT22;15074;50.940;5.282;2023-03-20T04:34:10;6.50;99.90
27667;DHT22;15074;50.940;5.282;2023-03-20T04:36:55;6.50;99.90
27667;DHT22;15074;50.940;5.282;2023-03-20T04:39:21;6.50;99.90
27667;DHT22;15074;50.940;5.282;2023-03-20T04:42:05;6.40;99.90
27667;DHT22;15074;50.940;5.282;2023-03-20T04:44:31;6.40;99.90
27667;DHT22;15074;50.940;5.282;2023-03-20T04:46:57;6.40;99.90
27667;DHT22;15074;50.940;5.282;2023-03-20T04:50:00;6.50;99.90
27667;DHT22;15074;50.940;5.282;2023-03-20T04:52:26;6.40;99.90
27667;DHT22;15074;50.940;5.282;2023-03-20T04:54:51;6.30;99.90
27667;DHT22;15074;50.940;5.282;2023-03-20T04:57:18;6.30;99.90
27667;DHT22;15074;50.940;5.282;2023-03-20T04:59:44;6.30;99.90
27667;DHT22;15074;50.940;5.282;2023-03-20T05:02:09;6.30;99.90
27667;DHT22;15074;50.940;5.282;2023-03-20T05:04:58;6.40;99.90
27667;DHT22;15074;50.940;5.282;2023-03-20T05:07:23;6.30;99.90
27667;DHT22;15074;50.940;5.282;2023-03-20T05:09:49;6.30;99.90
27667;DHT22;15074;50.940;5.282;2023-03-20T05:12:15;6.30;99.90
27667;DHT22;15074;50.940;5.282;2023-03-20T05:14:41;6.20;99.90
27667;DHT22;15074;50.940;5.282;2023-03-20T05:17:21;6.30;99.90
27667;DHT22;15074;50.940;5.282;2023-03-20T05:19:47;6.30;99.90
27667;DHT22;15074;50.940;5.282;2023-03-20T05:22:14;6.30;99.90
27667;DHT22;15074;50.940;5.282;2023-03-20T05:24:40;6.30;99.90
27667;DHT22;15074;50.940;5.282;2023-03-20T05:27:06;6.30;99.90
27667;DHT22;15074;50.940;5.282;2023-03-20T05:29:31;6.30;99.90
27667;DHT22;15074;50.940;5.282;2023-03-20T05:32:15;6.30;99.90
27667;DHT22;15074;50.940;5.282;2023-03-20T05:34:41;6.20;99.90
27667;DHT22;15074;50.940;5.282;2023-03-20T05:37:07;6.30;99.90
27667;DHT22;15074;50.940;5.282;2023-03-20T05:39:32;6.30;99.90
27667;DHT22;15074;50.940;5.282;2023-03-20T05:41:58;6.30;99.90
27667;DHT22;15074;50.940;5.282;2023-03-20T05:44:23;6.40;99.90
27667;DHT22;15074;50.940;5.282;2023-03-20T05:46:49;6.40;99.90
27667;DHT22;15074;50.940;5.282;2023-03-20T05:49:15;6.40;99.90
27667;DHT22;15074;50.940;5.282;2023-03-20T05:52:01;6.40;99.90
27667;DHT22;15074;50.940;5.282;2023-03-20T05:54:27;6.50;99.90
27667;DHT22;15074;50.940;5.282;2023-03-20T05:56:52;6.50;99.90
27667;DHT22;15074;50.940;5.282;2023-03-20T05:59:18;6.50;99.90
27667;DHT22;15074;50.940;5.282;2023-03-20T06:01:44;6.50;99.90
27667;DHT22;15074;50.940;5.282;2023-03-20T06:07:36;6.60;99.90
27667;DHT22;15074;50.940;5.282;2023-03-20T06:10:01;6.60;99.90
27667;DHT22;15074;50.940;5.282;2023-03-20T06:12:29;6.60;99.90
27667;DHT22;15074;50.940;5.282;2023-03-20T06:14:55;6.50;99.90
27667;DHT22;15074;50.940;5.282;2023-03-20T06:17:20;6.60;99.90
27667;DHT22;15074;50.940;5.282;2023-03-20T06:19:46;6.60;99.90
27667;DHT22;15074;50.940;5.282;2023-03-20T06:22:12;6.60;99.90
27667;DHT22;15074;50.940;5.282;2023-03-20T06:24:37;6.60;99.90
27667;DHT22;15074;50.940;5.282;2023-03-20T06:27:09;6.70;99.90
27667;DHT22;15074;50.940;5.282;2023-03-20T06:29:35;6.60;99.90
27667;DHT22;15074;50.940;5.282;2023-03-20T06:32:01;6.70;99.90
27667;DHT22;15074;50.940;5.282;2023-03-20T06:34:27;6.80;99.90
27667;DHT22;15074;50.940;5.282;2023-03-20T06:36:52;6.70;99.90
27667;DHT22;15074;50.940;5.282;2023-03-20T06:39:18;6.80;99.90
27667;DHT22;15074;50.940;5.282;2023-03-20T06:41:44;6.80;99.90
27667;DHT22;15074;50.940;5.282;2023-03-20T06:44:09;6.90;99.90
27667;DHT22;15074;50.940;5.282;2023-03-20T06:46:35;7.00;99.90
27667;DHT22;15074;50.940;5.282;2023-03-20T06:49:01;7.10;99.90
27667;DHT22;15074;50.940;5.282;2023-03-20T06:51:26;7.20;99.90
27667;DHT22;15074;50.940;5.282;2023-03-20T06:53:52;7.30;99.90
27667;DHT22;15074;50.940;5.282;2023-03-20T06:56:18;7.40;99.90
27667;DHT22;15074;50.940;5.282;2023-03-20T06:58:43;7.30;99.90
27667;DHT22;15074;50.940;5.282;2023-03-20T07:01:12;7.40;99.90
27667;DHT22;15074;50.940;5.282;2023-03-20T07:03:39;7.40;99.90
27667;DHT22;15074;50.940;5.282;2023-03-20T07:06:06;7.50;99.90
27667;DHT22;15074;50.940;5.282;2023-03-20T07:08:32;7.40;99.90
27667;DHT22;15074;50.940;5.282;2023-03-20T07:10:59;7.50;99.90
27667;DHT22;15074;50.940;5.282;2023-03-20T07:13:25;7.60;99.90
27667;DHT22;15074;50.940;5.282;2023-03-20T07:15:50;7.60;99.90
27667;DHT22;15074;50.940;5.282;2023-03-20T07:18:17;7.70;99.90
27667;DHT22;15074;50.940;5.282;2023-03-20T07:20:43;7.70;99.90
27667;DHT22;15074;50.940;5.282;2023-03-20T07:23:09;7.80;99.90
27667;DHT22;15074;50.940;5.282;2023-03-20T07:25:35;7.90;99.90
27667;DHT22;15074;50.940;5.282;2023-03-20T07:28:00;8.00;99.90
27667;DHT22;15074;50.940;5.282;2023-03-20T07:30:26;8.20;99.90
27667;DHT22;15074;50.940;5.282;2023-03-20T07:32:52;8.20;99.90
27667;DHT22;15074;50.940;5.282;2023-03-20T07:35:18;8.20;99.90
27667;DHT22;15074;50.940;5.282;2023-03-20T07:37:44;8.30;99.90
27667;DHT22;15074;50.940;5.282;2023-03-20T07:40:10;8.20;99.90
27667;DHT22;15074;50.940;5.282;2023-03-20T07:42:36;8.10;99.90
27667;DHT22;15074;50.940;5.282;2023-03-20T07:45:02;8.10;99.90
27667;DHT22;15074;50.940;5.282;2023-03-20T07:47:28;8.00;99.90
27667;DHT22;15074;50.940;5.282;2023-03-20T07:49:54;8.00;99.90
27667;DHT22;15074;50.940;5.282;2023-03-20T07:52:19;8.00;99.90
27667;DHT22;15074;50.940;5.282;2023-03-20T07:54:45;7.90;99.90
27667;DHT22;15074;50.940;5.282;2023-03-20T07:57:11;8.00;99.90
27667;DHT22;15074;50.940;5.282;2023-03-20T07:59:36;8.00;99.90
27667;DHT22;15074;50.940;5.282;2023-03-20T08:02:02;8.10;99.90
27667;DHT22;15074;50.940;5.282;2023-03-20T08:04:28;8.10;99.90
27667;DHT22;15074;50.940;5.282;2023-03-20T08:06:53;8.20;99.90
27667;DHT22;15074;50.940;5.282;2023-03-20T08:09:19;8.30;99.90
27667;DHT22;15074;50.940;5.282;2023-03-20T08:11:45;8.40;99.90
27667;DHT22;15074;50.940;5.282;2023-03-20T08:14:11;8.40;99.90
27667;DHT22;15074;50.940;5.282;2023-03-20T08:16:37;8.50;99.90
27667;DHT22;15074;50.940;5.282;2023-03-20T08:19:03;8.50;99.90
27667;DHT22;15074;50.940;5.282;2023-03-20T08:21:30;8.50;99.90
27667;DHT22;15074;50.940;5.282;2023-03-20T08:23:56;8.50;99.90
27667;DHT22;15074;50.940;5.282;2023-03-20T08:26:23;8.70;99.90
27667;DHT22;15074;50.940;5.282;2023-03-20T08:28:49;8.60;99.90
27667;DHT22;15074;50.940;5.282;2023-03-20T08:31:15;8.60;99.90
27667;DHT22;15074;50.940;5.282;2023-03-20T08:33:45;8.70;99.90
27667;DHT22;15074;50.940;5.282;2023-03-20T08:36:11;8.80;99.90
27667;DHT22;15074;50.940;5.282;2023-03-20T08:38:39;8.90;99.90
27667;DHT22;15074;50.940;5.282;2023-03-20T08:41:07;9.10;99.90
27667;DHT22;15074;50.940;5.282;2023-03-20T08:43:33;9.10;99.90
27667;DHT22;15074;50.940;5.282;2023-03-20T08:45:59;9.10;99.90
27667;DHT22;15074;50.940;5.282;2023-03-20T08:48:24;9.20;99.90
27667;DHT22;15074;50.940;5.282;2023-03-20T08:50:50;9.30;99.90
27667;DHT22;15074;50.940;5.282;2023-03-20T08:53:16;9.20;99.90
27667;DHT22;15074;50.940;5.282;2023-03-20T08:55:47;9.10;99.90
27667;DHT22;15074;50.940;5.282;2023-03-20T08:58:13;9.00;99.90
27667;DHT22;15074;50.940;5.282;2023-03-20T09:00:39;9.30;99.90
27667;DHT22;15074;50.940;5.282;2023-03-20T09:03:06;9.40;99.90
27667;DHT22;15074;50.940;5.282;2023-03-20T09:05:32;9.30;99.90
27667;DHT22;15074;50.940;5.282;2023-03-20T09:08:00;9.30;99.90
27667;DHT22;15074;50.940;5.282;2023-03-20T09:10:26;9.30;99.90
27667;DHT22;15074;50.940;5.282;2023-03-20T09:12:52;9.40;99.90
27667;DHT22;15074;50.940;5.282;2023-03-20T09:15:17;9.30;99.90
27667;DHT22;15074;50.940;5.282;2023-03-20T09:17:43;9.20;99.90
27667;DHT22;15074;50.940;5.282;2023-03-20T09:20:09;9.20;99.90
27667;DHT22;15074;50.940;5.282;2023-03-20T09:22:35;9.10;99.90
27667;DHT22;15074;50.940;5.282;2023-03-20T09:25:01;9.20;99.90
27667;DHT22;15074;50.940;5.282;2023-03-20T09:27:27;9.30;99.90
27667;DHT22;15074;50.940;5.282;2023-03-20T09:29:52;9.20;99.90
27667;DHT22;15074;50.940;5.282;2023-03-20T09:32:18;9.00;99.90
27667;DHT22;15074;50.940;5.282;2023-03-20T09:34:44;8.80;99.90
27667;DHT22;15074;50.940;5.282;2023-03-20T09:37:09;8.80;99.90
27667;DHT22;15074;50.940;5.282;2023-03-20T09:39:35;8.60;99.90
27667;DHT22;15074;50.940;5.282;2023-03-20T09:47:39;8.20;99.90
27667;DHT22;15074;50.940;5.282;2023-03-20T09:53:03;8.10;99.90
27667;DHT22;15074;50.940;5.282;2023-03-20T09:55:35;8.10;99.90
27667;DHT22;15074;50.940;5.282;2023-03-20T09:58:34;8.00;99.90
27667;DHT22;15074;50.940;5.282;2023-03-20T10:01:03;8.10;99.90
27667;DHT22;15074;50.940;5.282;2023-03-20T10:06:14;8.00;99.90
27667;DHT22;15074;50.940;5.282;2023-03-20T10:08:41;8.00;99.90
27667;DHT22;15074;50.940;5.282;2023-03-20T10:19:55;8.00;99.90
27667;DHT22;15074;50.940;5.282;2023-03-20T10:25:35;7.90;99.90
27667;DHT22;15074;50.940;5.282;2023-03-20T10:28:14;7.90;99.90
27667;DHT22;15074;50.940;5.282;2023-03-20T10:31:00;8.10;99.90
27667;DHT22;15074;50.940;5.282;2023-03-20T10:39:12;8.60;99.90
27667;DHT22;15074;50.940;5.282;2023-03-20T10:41:49;8.70;99.90
27667;DHT22;15074;50.940;5.282;2023-03-20T10:44:31;8.40;99.90
27667;DHT22;15074;50.940;5.282;2023-03-20T10:47:00;8.60;99.90
27667;DHT22;15074;50.940;5.282;2023-03-20T10:49:34;8.90;99.90
27667;DHT22;15074;50.940;5.282;2023-03-20T10:52:09;9.10;99.90
27667;DHT22;15074;50.940;5.282;2023-03-20T10:54:42;9.10;99.90
27667;DHT22;15074;50.940;5.282;2023-03-20T10:57:30;9.00;99.90
27667;DHT22;15074;50.940;5.282;2023-03-20T10:59:58;9.00;99.90
27667;DHT22;15074;50.940;5.282;2023-03-20T11:02:30;8.90;99.90
27667;DHT22;15074;50.940;5.282;2023-03-20T11:05:01;9.10;99.90
27667;DHT22;15074;50.940;5.282;2023-03-20T11:07:33;9.20;99.90
27667;DHT22;15074;50.940;5.282;2023-03-20T11:12:32;9.30;99.90
27667;DHT22;15074;50.940;5.282;2023-03-20T11:17:53;9.30;99.90
27667;DHT22;15074;50.940;5.282;2023-03-20T11:20:19;9.70;99.90
27667;DHT22;15074;50.940;5.282;2023-03-20T11:22:46;10.00;99.90
27667;DHT22;15074;50.940;5.282;2023-03-20T11:25:29;10.10;99.90
27667;DHT22;15074;50.940;5.282;2023-03-20T11:27:56;10.10;99.90
27667;DHT22;15074;50.940;5.282;2023-03-20T11:30:22;10.30;99.90
27667;DHT22;15074;50.940;5.282;2023-03-20T11:32:54;10.30;99.90
27667;DHT22;15074;50.940;5.282;2023-03-20T11:35:29;10.50;99.90
27667;DHT22;15074;50.940;5.282;2023-03-20T11:38:14;11.00;99.90
27667;DHT22;15074;50.940;5.282;2023-03-20T11:40:41;11.30;99.90
27667;DHT22;15074;50.940;5.282;2023-03-20T11:43:24;11.40;99.90
27667;DHT22;15074;50.940;5.282;2023-03-20T11:45:59;11.90;99.90
27667;DHT22;15074;50.940;5.282;2023-03-20T11:48:42;11.30;99.90
27667;DHT22;15074;50.940;5.282;2023-03-20T11:51:14;10.80;99.90
27667;DHT22;15074;50.940;5.282;2023-03-20T11:53:55;10.90;99.90
27667;DHT22;15074;50.940;5.282;2023-03-20T11:56:26;10.80;99.90
27667;DHT22;15074;50.940;5.282;2023-03-20T11:59:14;11.00;99.90
27667;DHT22;15074;50.940;5.282;2023-03-20T12:01:43;11.10;99.90
27667;DHT22;15074;50.940;5.282;2023-03-20T12:04:18;11.30;99.90
27667;DHT22;15074;50.940;5.282;2023-03-20T12:06:50;11.30;99.90
27667;DHT22;15074;50.940;5.282;2023-03-20T12:12:41;11.30;99.90
27667;DHT22;15074;50.940;5.282;2023-03-20T12:17:31;11.50;99.90
27667;DHT22;15074;50.940;5.282;2023-03-20T12:20:15;11.40;99.90
27667;DHT22;15074;50.940;5.282;2023-03-20T12:22:59;11.30;99.90
27667;DHT22;15074;50.940;5.282;2023-03-20T12:25:34;11.20;99.90
27667;DHT22;15074;50.940;5.282;2023-03-20T12:30:45;10.60;99.90
27667;DHT22;15074;50.940;5.282;2023-03-20T12:33:27;10.60;99.90
27667;DHT22;15074;50.940;5.282;2023-03-20T12:35:56;10.60;99.90
27667;DHT22;15074;50.940;5.282;2023-03-20T12:38:29;10.70;99.90
27667;DHT22;15074;50.940;5.282;2023-03-20T12:41:13;10.80;99.90
27667;DHT22;15074;50.940;5.282;2023-03-20T12:44:12;11.00;99.90
27667;DHT22;15074;50.940;5.282;2023-03-20T12:47:01;11.10;99.90
27667;DHT22;15074;50.940;5.282;2023-03-20T12:49:41;11.40;99.90
27667;DHT22;15074;50.940;5.282;2023-03-20T13:00:39;12.00;99.90
27667;DHT22;15074;50.940;5.282;2023-03-20T13:05:59;11.70;99.90
27667;DHT22;15074;50.940;5.282;2023-03-20T13:19:36;12.20;99.90
27667;DHT22;15074;50.940;5.282;2023-03-20T13:22:19;12.60;99.90
27667;DHT22;15074;50.940;5.282;2023-03-20T13:27:44;11.60;99.90
27667;DHT22;15074;50.940;5.282;2023-03-20T13:30:30;11.70;99.90
27667;DHT22;15074;50.940;5.282;2023-03-20T13:36:01;11.90;99.90
27667;DHT22;15074;50.940;5.282;2023-03-20T13:38:34;11.90;99.90
27667;DHT22;15074;50.940;5.282;2023-03-20T13:41:05;12.10;99.90
27667;DHT22;15074;50.940;5.282;2023-03-20T13:43:50;11.90;99.90
27667;DHT22;15074;50.940;5.282;2023-03-20T13:46:33;11.90;99.90
27667;DHT22;15074;50.940;5.282;2023-03-20T13:49:34;11.90;99.90
27667;DHT22;15074;50.940;5.282;2023-03-20T13:52:14;12.00;99.90
27667;DHT22;15074;50.940;5.282;2023-03-20T14:03:25;12.00;99.90
27667;DHT22;15074;50.940;5.282;2023-03-20T14:05:53;11.90;99.90
27667;DHT22;15074;50.940;5.282;2023-03-20T14:13:54;11.80;99.90
27667;DHT22;15074;50.940;5.282;2023-03-20T14:16:20;11.80;99.90
27667;DHT22;15074;50.940;5.282;2023-03-20T14:18:49;11.80;99.90
27667;DHT22;15074;50.940;5.282;2023-03-20T14:21:21;11.80;99.90
27667;DHT22;15074;50.940;5.282;2023-03-20T14:23:50;11.80;99.90
27667;DHT22;15074;50.940;5.282;2023-03-20T14:26:37;11.70;99.90
27667;DHT22;15074;50.940;5.282;2023-03-20T14:31:39;11.50;99.90
27667;DHT22;15074;50.940;5.282;2023-03-20T14:34:17;11.60;99.90
27667;DHT22;15074;50.940;5.282;2023-03-20T14:36:59;11.80;99.90
27667;DHT22;15074;50.940;5.282;2023-03-20T14:39:49;11.90;99.90
27667;DHT22;15074;50.940;5.282;2023-03-20T14:50:30;12.00;99.90
27667;DHT22;15074;50.940;5.282;2023-03-20T14:57:51;11.90;99.90
27667;DHT22;15074;50.940;5.282;2023-03-20T15:02:50;11.90;99.90
27667;DHT22;15074;50.940;5.282;2023-03-20T15:05:27;11.80;99.90
27667;DHT22;15074;50.940;5.282;2023-03-20T15:08:01;11.90;99.90
27667;DHT22;15074;50.940;5.282;2023-03-20T15:10:28;11.80;99.90
27667;DHT22;15074;50.940;5.282;2023-03-20T15:12:54;11.90;99.90
27667;DHT22;15074;50.940;5.282;2023-03-20T15:15:31;11.80;99.90
27667;DHT22;15074;50.940;5.282;2023-03-20T15:18:24;11.90;99.90
27667;DHT22;15074;50.940;5.282;2023-03-20T15:20:51;11.80;99.90
27667;DHT22;15074;50.940;5.282;2023-03-20T15:23:17;11.90;99.90
27667;DHT22;15074;50.940;5.282;2023-03-20T15:25:47;11.80;99.90
27667;DHT22;15074;50.940;5.282;2023-03-20T15:28:16;11.80;99.90
27667;DHT22;15074;50.940;5.282;2023-03-20T15:30:44;11.90;99.90
27667;DHT22;15074;50.940;5.282;2023-03-20T15:35:50;11.80;99.90
27667;DHT22;15074;50.940;5.282;2023-03-20T15:38:17;11.90;99.90
27667;DHT22;15074;50.940;5.282;2023-03-20T15:40:43;11.90;99.90
27667;DHT22;15074;50.940;5.282;2023-03-20T15:43:16;11.80;99.90
27667;DHT22;15074;50.940;5.282;2023-03-20T15:45:43;11.80;99.90
27667;DHT22;15074;50.940;5.282;2023-03-20T15:48:14;11.90;99.90
27667;DHT22;15074;50.940;5.282;2023-03-20T15:50:42;11.90;99.90
27667;DHT22;15074;50.940;5.282;2023-03-20T15:53:16;11.80;99.90
27667;DHT22;15074;50.940;5.282;2023-03-20T15:55:49;11.70;99.90
27667;DHT22;15074;50.940;5.282;2023-03-20T15:58:16;11.70;99.90
27667;DHT22;15074;50.940;5.282;2023-03-20T16:00:47;11.70;99.90
27667;DHT22;15074;50.940;5.282;2023-03-20T16:03:16;11.70;99.90
27667;DHT22;15074;50.940;5.282;2023-03-20T16:05:45;11.70;99.90
27667;DHT22;15074;50.940;5.282;2023-03-20T16:08:27;11.70;99.90
27667;DHT22;15074;50.940;5.282;2023-03-20T16:11:05;11.70;99.90
27667;DHT22;15074;50.940;5.282;2023-03-20T16:13:37;11.70;99.90
27667;DHT22;15074;50.940;5.282;2023-03-20T16:16:05;11.60;99.90
27667;DHT22;15074;50.940;5.282;2023-03-20T16:18:36;11.50;99.90
27667;DHT22;15074;50.940;5.282;2023-03-20T16:21:09;11.60;99.90
27667;DHT22;15074;50.940;5.282;2023-03-20T16:23:44;11.50;99.90
27667;DHT22;15074;50.940;5.282;2023-03-20T16:26:16;11.50;99.90
27667;DHT22;15074;50.940;5.282;2023-03-20T16:28:45;11.30;99.90
27667;DHT22;15074;50.940;5.282;2023-03-20T16:31:29;11.20;99.90
27667;DHT22;15074;50.940;5.282;2023-03-20T16:34:07;11.20;99.90
27667;DHT22;15074;50.940;5.282;2023-03-20T16:36:36;11.10;99.90
27667;DHT22;15074;50.940;5.282;2023-03-20T16:39:09;11.10;99.90
27667;DHT22;15074;50.940;5.282;2023-03-20T16:41:37;11.10;99.90
27667;DHT22;15074;50.940;5.282;2023-03-20T16:44:09;11.10;99.90
27667;DHT22;15074;50.940;5.282;2023-03-20T16:46:36;11.10;99.90
27667;DHT22;15074;50.940;5.282;2023-03-20T16:52:02;11.20;99.90
27667;DHT22;15074;50.940;5.282;2023-03-20T16:54:32;11.10;99.90
27667;DHT22;15074;50.940;5.282;2023-03-20T16:56:58;11.20;99.90
27667;DHT22;15074;50.940;5.282;2023-03-20T16:59:25;11.20;99.90
27667;DHT22;15074;50.940;5.282;2023-03-20T17:01:51;11.20;99.90
27667;DHT22;15074;50.940;5.282;2023-03-20T17:04:36;11.30;99.90
27667;DHT22;15074;50.940;5.282;2023-03-20T17:07:14;11.30;99.90
27667;DHT22;15074;50.940;5.282;2023-03-20T17:10:00;11.30;99.90
27667;DHT22;15074;50.940;5.282;2023-03-20T17:12:34;11.30;99.90
27667;DHT22;15074;50.940;5.282;2023-03-20T17:15:02;11.30;99.90
27667;DHT22;15074;50.940;5.282;2023-03-20T17:17:28;11.30;99.90
27667;DHT22;15074;50.940;5.282;2023-03-20T17:19:54;11.30;99.90
27667;DHT22;15074;50.940;5.282;2023-03-20T17:22:22;11.30;99.90
27667;DHT22;15074;50.940;5.282;2023-03-20T17:24:48;11.30;99.90
27667;DHT22;15074;50.940;5.282;2023-03-20T17:27:16;11.30;99.90
27667;DHT22;15074;50.940;5.282;2023-03-20T17:29:43;11.30;99.90
27667;DHT22;15074;50.940;5.282;2023-03-20T17:32:16;11.30;99.90
27667;DHT22;15074;50.940;5.282;2023-03-20T17:34:43;11.30;99.90
27667;DHT22;15074;50.940;5.282;2023-03-20T17:37:16;11.20;99.90
27667;DHT22;15074;50.940;5.282;2023-03-20T17:39:43;11.20;99.90
27667;DHT22;15074;50.940;5.282;2023-03-20T17:42:16;11.30;99.90
27667;DHT22;15074;50.940;5.282;2023-03-20T17:44:43;11.30;99.90
27667;DHT22;15074;50.940;5.282;2023-03-20T17:47:14;11.30;99.90
27667;DHT22;15074;50.940;5.282;2023-03-20T17:49:41;11.30;99.90
27667;DHT22;15074;50.940;5.282;2023-03-20T17:52:17;11.30;99.90
27667;DHT22;15074;50.940;5.282;2023-03-20T17:54:44;11.30;99.90
27667;DHT22;15074;50.940;5.282;2023-03-20T17:59:44;11.30;99.90
27667;DHT22;15074;50.940;5.282;2023-03-20T18:02:10;11.30;99.90
27667;DHT22;15074;50.940;5.282;2023-03-20T18:04:36;11.30;99.90
27667;DHT22;15074;50.940;5.282;2023-03-20T18:07:01;11.30;99.90
27667;DHT22;15074;50.940;5.282;2023-03-20T18:09:27;11.30;99.90
27667;DHT22;15074;50.940;5.282;2023-03-20T18:11:55;11.40;99.90
27667;DHT22;15074;50.940;5.282;2023-03-20T18:14:21;11.30;99.90
27667;DHT22;15074;50.940;5.282;2023-03-20T18:16:46;11.30;99.90
27667;DHT22;15074;50.940;5.282;2023-03-20T18:19:39;11.10;99.90
27667;DHT22;15074;50.940;5.282;2023-03-20T18:22:04;11.10;99.90
27667;DHT22;15074;50.940;5.282;2023-03-20T18:24:31;11.00;99.90
27667;DHT22;15074;50.940;5.282;2023-03-20T18:26:56;11.00;99.90
27667;DHT22;15074;50.940;5.282;2023-03-20T18:29:24;11.10;99.90
27667;DHT22;15074;50.940;5.282;2023-03-20T18:31:50;11.00;99.90
27667;DHT22;15074;50.940;5.282;2023-03-20T18:34:34;11.00;99.90
27667;DHT22;15074;50.940;5.282;2023-03-20T18:37:00;10.90;99.90
27667;DHT22;15074;50.940;5.282;2023-03-20T18:39:27;11.00;99.90
27667;DHT22;15074;50.940;5.282;2023-03-20T18:41:53;11.00;99.90
27667;DHT22;15074;50.940;5.282;2023-03-20T18:44:19;11.00;99.90
27667;DHT22;15074;50.940;5.282;2023-03-20T18:46:44;11.00;99.90
27667;DHT22;15074;50.940;5.282;2023-03-20T18:49:16;11.00;99.90
27667;DHT22;15074;50.940;5.282;2023-03-20T18:51:43;11.00;99.90
27667;DHT22;15074;50.940;5.282;2023-03-20T18:54:09;11.00;99.90
27667;DHT22;15074;50.940;5.282;2023-03-20T18:56:35;10.90;99.90
27667;DHT22;15074;50.940;5.282;2023-03-20T18:59:03;10.90;99.90
27667;DHT22;15074;50.940;5.282;2023-03-20T19:01:31;10.90;99.90
27667;DHT22;15074;50.940;5.282;2023-03-20T19:03:57;11.00;99.90
27667;DHT22;15074;50.940;5.282;2023-03-20T19:06:23;11.00;99.90